createdAt,value
2023-02-19T00:01:48.284Z,11.32
2023-02-19T00:04:22.432Z,9.07
2023-02-19T00:06:50.157Z,10.95
2023-02-19T00:09:19.988Z,8.30
2023-02-19T00:11:48.013Z,10.23
2023-02-19T00:14:21.324Z,7.65
2023-02-19T00:16:49.190Z,12.93
2023-02-19T00:19:18.929Z,7.07
2023-02-19T00:21:47.062Z,4.50
2023-02-19T00:24:15.319Z,12.15
2023-02-19T00:26:44.157Z,11.13
2023-02-19T00:29:13.980Z,10.77
2023-02-19T00:31:42.856Z,6.00
2023-02-19T00:34:11.598Z,9.13
2023-02-19T00:36:40.280Z,10.48
2023-02-19T00:39:08.822Z,8.00
2023-02-19T00:41:36.115Z,13.60
2023-02-19T00:44:06.411Z,11.60
2023-02-19T00:46:36.579Z,8.20
2023-02-19T00:49:05.921Z,7.20
2023-02-19T00:51:36.829Z,8.18
2023-02-19T00:54:05.249Z,7.50
2023-02-19T00:56:32.832Z,6.25
2023-02-19T00:59:01.489Z,9.32
2023-02-19T01:01:28.920Z,9.45
2023-02-19T01:03:56.630Z,8.50
2023-02-19T01:06:24.019Z,7.57
2023-02-19T01:08:51.896Z,8.63
2023-02-19T01:11:20.486Z,13.43
2023-02-19T01:13:48.129Z,6.97
2023-02-19T01:16:22.359Z,10.45
2023-02-19T01:18:49.955Z,8.90
2023-02-19T01:21:24.013Z,8.82
2023-02-19T01:23:52.590Z,6.65
2023-02-19T01:26:26.015Z,9.82
2023-02-19T01:28:53.633Z,10.85
2023-02-19T01:31:23.942Z,6.85
2023-02-19T01:33:57.839Z,6.47
2023-02-19T01:36:26.061Z,7.68
2023-02-19T01:38:54.321Z,7.68
2023-02-19T01:41:24.335Z,12.38
2023-02-19T01:43:58.072Z,10.77
2023-02-19T01:46:35.650Z,9.85
2023-02-19T01:49:08.122Z,13.75
2023-02-19T01:51:38.227Z,10.23
2023-02-19T01:54:09.896Z,5.85
2023-02-19T01:56:39.721Z,5.65
2023-02-19T01:59:07.773Z,4.72
2023-02-19T02:01:38.040Z,8.82
2023-02-19T02:04:08.270Z,12.45
2023-02-19T02:06:43.528Z,10.88
2023-02-19T02:09:30.478Z,8.30
2023-02-19T02:11:57.879Z,9.73
2023-02-19T02:14:30.308Z,10.60
2023-02-19T02:19:49.568Z,11.55
2023-02-19T02:22:24.464Z,11.30
2023-02-19T02:24:54.938Z,9.55
2023-02-19T02:27:50.065Z,8.80
2023-02-19T02:30:39.627Z,7.25
2023-02-19T02:33:28.154Z,6.88
2023-02-19T02:36:24.708Z,6.53
2023-02-19T02:38:54.274Z,13.07
2023-02-19T02:41:24.341Z,10.88
2023-02-19T02:43:52.297Z,11.88
2023-02-19T02:46:24.470Z,15.60
2023-02-19T02:48:57.592Z,10.02
2023-02-19T02:51:36.410Z,8.23
2023-02-19T02:54:35.241Z,9.98
2023-02-19T02:57:09.715Z,10.65
2023-02-19T02:59:45.972Z,6.55
2023-02-19T03:02:19.086Z,5.38
2023-02-19T03:05:18.091Z,8.70
2023-02-19T03:08:07.627Z,8.00
2023-02-19T03:10:46.061Z,7.85
2023-02-19T03:13:47.683Z,8.32
2023-02-19T03:16:42.989Z,11.35
2023-02-19T03:19:20.077Z,5.90
2023-02-19T03:21:55.013Z,7.72
2023-02-19T03:24:45.944Z,11.27
2023-02-19T03:27:15.808Z,5.38
2023-02-19T03:29:48.942Z,8.07
2023-02-19T03:32:25.620Z,6.03
2023-02-19T03:34:59.306Z,6.97
2023-02-19T03:37:38.723Z,5.80
2023-02-19T03:40:07.573Z,15.63
2023-02-19T03:42:55.007Z,6.00
2023-02-19T03:45:44.199Z,11.45
2023-02-19T03:48:29.645Z,15.93
2023-02-19T03:51:39.159Z,5.75
2023-02-19T03:54:37.475Z,11.02
2023-02-19T03:57:19.623Z,7.05
2023-02-19T03:59:55.855Z,9.25
2023-02-19T04:02:38.399Z,16.42
2023-02-19T04:05:14.067Z,8.40
2023-02-19T04:07:47.099Z,6.53
2023-02-19T04:10:18.934Z,12.35
2023-02-19T04:12:56.739Z,8.55
2023-02-19T04:15:30.799Z,8.32
2023-02-19T04:18:07.501Z,9.05
2023-02-19T04:20:43.780Z,10.15
2023-02-19T04:23:13.013Z,20.33
2023-02-19T04:25:44.520Z,5.13
2023-02-19T04:28:14.639Z,12.27
2023-02-19T04:30:42.690Z,7.88
2023-02-19T04:33:10.377Z,5.78
2023-02-19T04:35:37.588Z,10.68
2023-02-19T04:38:05.151Z,11.25
2023-02-19T04:40:32.491Z,11.80
2023-02-19T04:43:00.032Z,6.00
2023-02-19T04:45:27.301Z,9.77
2023-02-19T04:47:54.944Z,9.88
2023-02-19T04:50:23.281Z,9.13
2023-02-19T04:52:51.147Z,8.63
2023-02-19T04:55:18.460Z,8.80
2023-02-19T04:57:45.979Z,11.30
2023-02-19T05:00:13.823Z,6.43
2023-02-19T05:02:41.557Z,7.38
2023-02-19T05:05:08.824Z,21.15
2023-02-19T05:07:36.493Z,9.88
2023-02-19T05:10:04.234Z,11.43
2023-02-19T05:12:31.953Z,7.20
2023-02-19T05:14:59.204Z,10.77
2023-02-19T05:17:26.783Z,8.13
2023-02-19T05:19:53.987Z,20.75
2023-02-19T05:22:21.608Z,9.95
2023-02-19T05:24:48.849Z,12.27
2023-02-19T05:27:16.387Z,9.82
2023-02-19T05:29:43.599Z,10.75
2023-02-19T05:32:11.178Z,7.90
2023-02-19T05:34:38.503Z,10.90
2023-02-19T05:37:06.043Z,4.65
2023-02-19T05:39:33.292Z,4.43
2023-02-19T05:42:00.799Z,10.45
2023-02-19T05:44:28.033Z,7.97
2023-02-19T05:46:55.617Z,9.23
2023-02-19T05:49:23.086Z,8.88
2023-02-19T05:51:51.320Z,9.05
2023-02-19T05:54:18.534Z,10.73
2023-02-19T05:56:46.069Z,8.63
2023-02-19T05:59:19.372Z,11.65
2023-02-19T06:01:47.965Z,8.90
2023-02-19T06:04:15.890Z,9.40
2023-02-19T06:06:43.710Z,16.50
2023-02-19T06:09:11.173Z,10.85
2023-02-19T06:11:39.634Z,11.15
2023-02-19T06:14:07.293Z,12.43
2023-02-19T06:16:34.819Z,13.15
2023-02-19T06:19:04.041Z,10.50
2023-02-19T06:21:31.763Z,9.88
2023-02-19T06:23:59.185Z,9.02
2023-02-19T06:26:26.809Z,6.45
2023-02-19T06:28:54.789Z,11.43
2023-02-19T06:31:23.221Z,9.35
2023-02-19T06:33:53.321Z,10.30
2023-02-19T06:36:22.061Z,7.55
2023-02-19T06:38:49.874Z,9.63
2023-02-19T06:41:17.816Z,5.07
2023-02-19T06:43:46.620Z,5.90
2023-02-19T06:46:14.665Z,9.23
2023-02-19T06:48:43.859Z,9.82
2023-02-19T06:51:18.855Z,14.35
2023-02-19T06:53:46.671Z,9.52
2023-02-19T06:56:34.399Z,10.63
2023-02-19T06:59:04.179Z,8.20
2023-02-19T07:01:33.926Z,12.25
2023-02-19T07:04:01.885Z,8.15
2023-02-19T07:06:29.969Z,9.18
2023-02-19T07:08:58.904Z,12.55
2023-02-19T07:11:29.725Z,11.57
2023-02-19T07:14:01.643Z,14.15
2023-02-19T07:16:30.172Z,8.63
2023-02-19T07:18:58.819Z,8.00
2023-02-19T07:21:27.606Z,6.95
2023-02-19T07:23:55.233Z,8.88
2023-02-19T07:26:23.432Z,7.22
2023-02-19T07:28:51.322Z,11.80
2023-02-19T07:31:22.513Z,10.52
2023-02-19T07:33:50.332Z,5.30
2023-02-19T07:36:19.019Z,11.60
2023-02-19T07:38:46.694Z,8.32
2023-02-19T07:41:14.442Z,7.13
2023-02-19T07:43:41.795Z,5.35
2023-02-19T07:46:12.223Z,14.20
2023-02-19T07:48:41.186Z,5.53
2023-02-19T07:51:12.801Z,10.30
2023-02-19T07:53:40.266Z,6.05
2023-02-19T07:56:08.796Z,6.82
2023-02-19T07:58:36.048Z,6.18
2023-02-19T08:01:40.186Z,5.60
2023-02-19T08:04:07.618Z,8.82
2023-02-19T08:06:35.153Z,8.15
2023-02-19T08:09:03.563Z,8.43
2023-02-19T08:11:49.618Z,6.28
2023-02-19T08:14:16.895Z,9.63
2023-02-19T08:16:52.134Z,2.83
2023-02-19T08:19:19.992Z,6.57
2023-02-19T08:21:47.559Z,6.80
2023-02-19T08:24:14.809Z,4.03
2023-02-19T08:26:42.425Z,3.30
2023-02-19T08:29:09.808Z,5.07
2023-02-19T08:31:38.067Z,4.45
2023-02-19T08:34:05.630Z,4.82
2023-02-19T08:36:33.227Z,7.93
2023-02-19T08:39:00.525Z,5.18
2023-02-19T08:41:28.292Z,8.48
2023-02-19T08:43:55.625Z,2.95
2023-02-19T08:46:23.316Z,6.38
2023-02-19T08:48:50.601Z,3.47
2023-02-19T08:51:18.175Z,5.32
2023-02-19T08:53:46.045Z,6.63
2023-02-19T08:56:16.384Z,3.70
2023-02-19T08:58:43.989Z,10.90
2023-02-19T09:01:14.875Z,6.88
2023-02-19T09:03:42.796Z,4.65
2023-02-19T09:06:15.247Z,3.50
2023-02-19T09:08:42.478Z,5.55
2023-02-19T09:11:10.453Z,4.25
2023-02-19T09:13:37.926Z,3.55
2023-02-19T09:16:06.119Z,3.28
2023-02-19T09:18:33.824Z,5.68
2023-02-19T09:21:04.713Z,5.95
2023-02-19T09:23:36.638Z,2.63
2023-02-19T09:26:07.071Z,2.42
2023-02-19T09:28:35.075Z,3.85
2023-02-19T09:31:07.193Z,2.90
2023-02-19T09:36:02.640Z,1.98
2023-02-19T09:38:31.077Z,4.30
2023-02-19T09:41:05.970Z,4.63
2023-02-19T09:43:34.426Z,3.72
2023-02-19T09:46:22.640Z,4.60
2023-02-19T09:48:50.314Z,4.00
2023-02-19T09:51:18.062Z,2.28
2023-02-19T09:53:49.565Z,3.13
2023-02-19T09:56:17.794Z,1.95
2023-02-19T09:58:54.462Z,2.90
2023-02-19T10:01:24.691Z,2.13
2023-02-19T10:03:51.978Z,4.22
2023-02-19T10:06:26.740Z,2.40
2023-02-19T10:09:22.202Z,5.20
2023-02-19T10:11:50.257Z,3.65
2023-02-19T10:14:44.915Z,7.82
2023-02-19T10:17:24.770Z,1.40
2023-02-19T10:19:53.888Z,1.33
2023-02-19T10:22:21.458Z,1.65
2023-02-19T10:24:52.968Z,3.42
2023-02-19T10:29:50.370Z,2.88
2023-02-19T10:32:23.930Z,2.03
2023-02-19T10:35:16.281Z,1.48
2023-02-19T10:37:47.037Z,1.58
2023-02-19T10:40:23.479Z,2.53
2023-02-19T10:42:55.653Z,1.73
2023-02-19T10:47:53.360Z,3.25
2023-02-19T10:50:32.177Z,3.78
2023-02-19T10:53:02.084Z,1.55
2023-02-19T10:55:30.859Z,4.88
2023-02-19T10:57:58.848Z,2.97
2023-02-19T11:00:30.614Z,3.80
2023-02-19T11:03:21.585Z,3.22
2023-02-19T11:06:00.556Z,1.80
2023-02-19T11:08:29.285Z,0.60
2023-02-19T11:10:56.808Z,1.02
2023-02-19T11:13:32.303Z,1.50
2023-02-19T11:16:00.537Z,0.60
2023-02-19T11:18:36.257Z,1.70
2023-02-19T11:21:07.546Z,0.68
2023-02-19T11:23:43.855Z,2.50
2023-02-19T11:26:21.082Z,0.80
2023-02-19T11:29:00.564Z,2.13
2023-02-19T11:31:36.136Z,3.30
2023-02-19T11:34:30.023Z,2.45
2023-02-19T11:37:13.575Z,2.45
2023-02-19T11:39:43.773Z,2.10
2023-02-19T11:42:53.824Z,1.77
2023-02-19T11:45:43.236Z,2.97
2023-02-19T11:48:31.515Z,1.27
2023-02-19T11:51:17.225Z,1.42
2023-02-19T11:54:07.253Z,2.05
2023-02-19T11:56:39.211Z,1.30
2023-02-19T11:59:34.399Z,1.48
2023-02-19T12:02:26.232Z,1.15
2023-02-19T12:05:23.715Z,2.85
2023-02-19T12:08:03.264Z,2.83
2023-02-19T12:10:52.061Z,2.50
2023-02-19T12:13:29.131Z,4.10
2023-02-19T12:16:17.470Z,3.25
2023-02-19T12:18:59.575Z,1.30
2023-02-19T12:21:26.895Z,1.30
2023-02-19T12:24:16.012Z,2.95
2023-02-19T12:27:06.313Z,2.05
2023-02-19T12:29:49.028Z,1.83
2023-02-19T12:32:16.310Z,1.65
2023-02-19T12:35:08.419Z,1.98
2023-02-19T12:37:38.461Z,2.03
2023-02-19T12:40:15.151Z,2.53
2023-02-19T12:42:54.546Z,5.72
2023-02-19T12:45:33.765Z,1.10
2023-02-19T12:48:43.098Z,2.28
2023-02-19T12:51:23.497Z,2.05
2023-02-19T12:54:07.164Z,1.92
2023-02-19T12:56:40.834Z,4.13
2023-02-19T12:59:23.796Z,0.98
2023-02-19T13:01:54.518Z,1.08
2023-02-19T13:04:30.571Z,4.53
2023-02-19T13:07:05.557Z,1.52
2023-02-19T13:09:46.093Z,0.98
2023-02-19T13:12:31.257Z,2.30
2023-02-19T13:15:03.664Z,1.95
2023-02-19T13:17:49.453Z,2.90
2023-02-19T13:20:29.826Z,1.95
2023-02-19T13:23:50.577Z,2.60
2023-02-19T13:26:42.789Z,2.90
2023-02-19T13:29:20.204Z,2.47
2023-02-19T13:32:12.391Z,1.38
2023-02-19T13:34:58.816Z,2.47
2023-02-19T13:37:26.784Z,1.77
2023-02-19T13:39:55.759Z,1.40
2023-02-19T13:42:36.594Z,2.17
2023-02-19T13:45:06.453Z,0.95
2023-02-19T13:47:56.292Z,1.33
2023-02-19T13:50:26.802Z,2.47
2023-02-19T13:52:56.247Z,3.63
2023-02-19T13:55:49.957Z,0.60
2023-02-19T13:58:36.333Z,0.95
2023-02-19T14:01:05.660Z,2.78
2023-02-19T14:03:38.605Z,1.77
2023-02-19T14:06:08.442Z,0.63
2023-02-19T14:08:58.142Z,1.60
2023-02-19T14:11:48.224Z,3.33
2023-02-19T14:14:39.785Z,1.48
2023-02-19T14:17:10.192Z,2.58
2023-02-19T14:19:43.187Z,0.93
2023-02-19T14:22:51.467Z,1.98
2023-02-19T14:25:24.600Z,3.85
2023-02-19T14:27:53.730Z,1.30
2023-02-19T14:30:23.895Z,1.52
2023-02-19T14:33:02.867Z,0.47
2023-02-19T14:35:42.861Z,2.75
2023-02-19T14:38:21.484Z,1.60
2023-02-19T14:40:50.300Z,1.90
2023-02-19T14:43:21.357Z,2.55
2023-02-19T14:45:53.640Z,3.67
2023-02-19T14:48:26.813Z,3.25
2023-02-19T14:50:59.202Z,1.08
2023-02-19T14:53:28.996Z,4.07
2023-02-19T14:55:58.985Z,1.45
2023-02-19T14:58:33.627Z,1.90
2023-02-19T15:01:00.980Z,2.35
2023-02-19T15:03:33.747Z,1.45
2023-02-19T15:06:27.544Z,1.50
2023-02-19T15:09:00.261Z,2.30
2023-02-19T15:11:32.042Z,0.80
2023-02-19T15:14:06.106Z,1.10
2023-02-19T15:16:35.880Z,3.15
2023-02-19T15:19:08.205Z,1.42
2023-02-19T15:24:07.259Z,3.75
2023-02-19T15:26:37.767Z,2.33
2023-02-19T15:29:11.623Z,2.25
2023-02-19T15:31:53.014Z,4.93
2023-02-19T15:34:26.308Z,3.33
2023-02-19T15:37:02.476Z,4.70
2023-02-19T15:39:48.810Z,3.38
2023-02-19T15:42:23.404Z,2.15
2023-02-19T15:45:15.649Z,3.15
2023-02-19T15:47:51.872Z,2.38
2023-02-19T15:50:35.956Z,1.00
2023-02-19T15:53:07.187Z,1.13
2023-02-19T15:56:06.386Z,2.10
2023-02-19T15:58:46.409Z,1.38
2023-02-19T16:01:13.986Z,1.63
2023-02-19T16:03:42.166Z,2.63
2023-02-19T16:06:14.904Z,3.63
2023-02-19T16:08:47.070Z,1.35
2023-02-19T16:11:23.616Z,3.95
2023-02-19T16:13:52.007Z,2.55
2023-02-19T16:16:31.499Z,2.22
2023-02-19T16:18:59.008Z,1.63
2023-02-19T16:21:28.227Z,2.38
2023-02-19T16:24:05.294Z,2.60
2023-02-19T16:26:43.885Z,2.20
2023-02-19T16:29:50.484Z,5.43
2023-02-19T16:32:18.458Z,2.15
2023-02-19T16:34:47.864Z,4.30
2023-02-19T16:37:34.154Z,5.28
2023-02-19T16:40:07.334Z,5.97
2023-02-19T16:43:00.709Z,4.80
2023-02-19T16:45:27.981Z,5.30
2023-02-19T16:47:55.796Z,7.35
2023-02-19T16:50:24.981Z,10.23
2023-02-19T16:52:57.937Z,6.68
2023-02-19T16:55:26.175Z,4.95
2023-02-19T16:57:53.907Z,6.78
2023-02-19T17:00:23.754Z,8.30
2023-02-19T17:02:54.532Z,6.55
2023-02-19T17:05:23.636Z,8.50
2023-02-19T17:07:51.596Z,9.50
2023-02-19T17:10:24.811Z,6.35
2023-02-19T17:12:55.928Z,8.48
2023-02-19T17:15:23.352Z,6.00
2023-02-19T17:17:50.910Z,5.07
2023-02-19T17:20:27.590Z,4.97
2023-02-19T17:22:56.109Z,6.25
2023-02-19T17:25:23.793Z,8.18
2023-02-19T17:27:51.300Z,7.57
2023-02-19T17:30:38.866Z,7.65
2023-02-19T17:33:07.391Z,6.93
2023-02-19T17:35:34.743Z,5.18
2023-02-19T17:38:09.507Z,6.60
2023-02-19T17:40:37.437Z,7.15
2023-02-19T17:43:06.069Z,5.93
2023-02-19T17:45:33.880Z,5.15
2023-02-19T17:48:01.463Z,8.00
2023-02-19T17:50:31.825Z,4.05
2023-02-19T17:52:59.706Z,6.55
2023-02-19T17:55:28.998Z,4.95
2023-02-19T17:57:56.755Z,5.65
2023-02-19T18:00:27.455Z,5.35
2023-02-19T18:02:55.662Z,8.27
2023-02-19T18:05:23.641Z,4.75
2023-02-19T18:07:51.446Z,8.10
2023-02-19T18:10:21.137Z,4.85
2023-02-19T18:12:49.301Z,8.63
2023-02-19T18:15:22.448Z,6.97
2023-02-19T18:17:50.230Z,6.78
2023-02-19T18:20:21.961Z,8.50
2023-02-19T18:22:49.744Z,8.25
2023-02-19T18:25:18.301Z,7.22
2023-02-19T18:27:46.276Z,8.50
2023-02-19T18:30:18.452Z,14.05
2023-02-19T18:32:49.908Z,15.88
2023-02-19T18:35:19.458Z,13.77
2023-02-19T18:37:54.377Z,15.30
2023-02-19T18:40:25.403Z,14.50
2023-02-19T18:42:53.341Z,11.57
2023-02-19T18:45:21.054Z,11.25
2023-02-19T18:47:50.556Z,10.55
2023-02-19T18:50:18.992Z,7.47
2023-02-19T18:52:47.145Z,9.52
2023-02-19T18:55:14.525Z,9.30
2023-02-19T18:57:42.243Z,8.50
2023-02-19T19:00:10.391Z,7.10
2023-02-19T19:02:48.885Z,7.30
2023-02-19T19:05:21.427Z,10.85
2023-02-19T19:07:54.134Z,9.75
2023-02-19T19:10:22.338Z,8.65
2023-02-19T19:12:50.254Z,8.18
2023-02-19T19:15:18.637Z,6.28
2023-02-19T19:17:48.300Z,7.07
2023-02-19T19:20:23.531Z,13.73
2023-02-19T19:22:54.011Z,9.30
2023-02-19T19:25:22.914Z,9.00
2023-02-19T19:27:54.467Z,7.85
2023-02-19T19:30:21.852Z,11.80
2023-02-19T19:32:51.838Z,14.88
2023-02-19T19:35:21.012Z,10.57
2023-02-19T19:37:49.121Z,12.30
2023-02-19T19:40:17.645Z,5.57
2023-02-19T19:42:45.602Z,6.15
2023-02-19T19:45:14.322Z,4.72
2023-02-19T19:47:41.915Z,7.78
2023-02-19T19:50:10.198Z,6.53
2023-02-19T19:52:37.715Z,8.05
2023-02-19T19:55:06.244Z,11.55
2023-02-19T19:57:33.865Z,6.85
2023-02-19T20:00:01.354Z,7.90
2023-02-19T20:02:29.062Z,8.30
2023-02-19T20:04:56.378Z,8.02
2023-02-19T20:07:24.050Z,8.95
2023-02-19T20:09:51.364Z,7.80
2023-02-19T20:12:18.922Z,8.38
2023-02-19T20:14:46.820Z,7.32
2023-02-19T20:17:14.557Z,5.72
2023-02-19T20:19:42.020Z,8.07
2023-02-19T20:22:09.592Z,8.18
2023-02-19T20:24:36.895Z,10.80
2023-02-19T20:27:04.923Z,6.68
2023-02-19T20:29:34.469Z,6.15
2023-02-19T20:32:03.734Z,10.90
2023-02-19T20:34:31.766Z,9.43
2023-02-19T20:36:59.650Z,4.18
2023-02-19T20:39:29.351Z,9.40
2023-02-19T20:41:58.806Z,4.57
2023-02-19T20:44:28.508Z,6.40
2023-02-19T20:46:57.308Z,8.38
2023-02-19T20:49:29.072Z,2.83
2023-02-19T20:51:59.754Z,4.45
2023-02-19T20:54:32.559Z,4.20
2023-02-19T20:57:02.362Z,4.03
2023-02-19T20:59:34.952Z,6.38
2023-02-19T21:02:04.258Z,3.72
2023-02-19T21:04:32.284Z,8.60
2023-02-19T21:06:59.555Z,4.95
2023-02-19T21:09:27.056Z,4.90
2023-02-19T21:11:54.338Z,3.05
2023-02-19T21:14:21.886Z,3.17
2023-02-19T21:16:49.205Z,5.93
2023-02-19T21:19:17.081Z,5.93
2023-02-19T21:21:44.370Z,7.18
2023-02-19T21:24:14.149Z,2.90
2023-02-19T21:26:42.573Z,4.25
2023-02-19T21:29:14.523Z,6.88
2023-02-19T21:31:44.710Z,4.70
2023-02-19T21:34:14.861Z,5.70
2023-02-19T21:36:42.811Z,4.45
2023-02-19T21:39:13.540Z,5.70
2023-02-19T21:41:40.854Z,7.68
2023-02-19T21:44:08.646Z,6.55
2023-02-19T21:46:35.984Z,8.00
2023-02-19T21:49:04.524Z,5.72
2023-02-19T21:51:38.067Z,4.05
2023-02-19T21:54:07.293Z,12.18
2023-02-19T21:56:36.637Z,3.75
2023-02-19T21:59:04.494Z,4.68
2023-02-19T22:01:34.616Z,3.67
2023-02-19T22:04:02.389Z,12.23
2023-02-19T22:06:31.134Z,7.80
2023-02-19T22:08:59.277Z,7.43
2023-02-19T22:11:26.883Z,3.30
2023-02-19T22:13:54.584Z,4.35
2023-02-19T22:16:22.312Z,8.05
2023-02-19T22:18:55.468Z,6.13
2023-02-19T22:21:24.962Z,3.35
2023-02-19T22:23:54.405Z,7.05
2023-02-19T22:26:27.910Z,2.92
2023-02-19T22:28:56.407Z,4.85
2023-02-19T22:31:25.118Z,5.60
2023-02-19T22:33:53.277Z,4.18
2023-02-19T22:36:23.560Z,4.90
2023-02-19T22:38:51.308Z,6.28
2023-02-19T22:41:19.938Z,5.13
2023-02-19T22:43:47.940Z,6.13
2023-02-19T22:46:19.553Z,3.50
2023-02-19T22:51:17.583Z,4.43
2023-02-19T22:53:55.849Z,3.00
2023-02-19T22:56:25.345Z,2.65
2023-02-19T22:58:54.279Z,5.35
2023-02-19T23:01:22.175Z,4.68
2023-02-19T23:03:55.357Z,4.90
2023-02-19T23:06:32.113Z,7.22
2023-02-19T23:09:04.242Z,7.40
2023-02-19T23:11:34.274Z,6.72
2023-02-19T23:14:02.472Z,5.00
2023-02-19T23:16:30.364Z,4.57
2023-02-19T23:18:57.952Z,6.50
2023-02-19T23:21:25.269Z,4.85
2023-02-19T23:23:52.788Z,7.07
2023-02-19T23:26:20.178Z,5.22
2023-02-19T23:28:47.841Z,7.20
2023-02-19T23:31:15.926Z,6.07
2023-02-19T23:33:45.221Z,8.68
2023-02-19T23:36:13.783Z,3.33
2023-02-19T23:38:47.329Z,6.97
2023-02-19T23:41:16.814Z,2.58
2023-02-19T23:43:44.839Z,6.75
2023-02-19T23:46:17.612Z,4.32
2023-02-19T23:48:46.340Z,4.55
2023-02-19T23:51:14.068Z,4.05
2023-02-19T23:53:41.765Z,7.03
2023-02-19T23:56:09.100Z,8.40
2023-02-19T23:58:36.802Z,4.72
